createdAt,value
2022-11-21T00:01:05.167Z,47.47
2022-11-21T00:03:31.871Z,47.30
2022-11-21T00:05:58.575Z,51.20
2022-11-21T00:08:25.172Z,48.88
2022-11-21T00:10:51.829Z,48.78
2022-11-21T00:13:20.421Z,48.00
2022-11-21T00:15:47.875Z,50.58
2022-11-21T00:18:14.908Z,48.20
2022-11-21T00:20:42.491Z,50.00
2022-11-21T00:23:09.840Z,50.28
2022-11-21T00:25:37.124Z,52.33
2022-11-21T00:28:04.550Z,51.38
2022-11-21T00:30:31.384Z,51.53
2022-11-21T00:33:01.109Z,55.30
2022-11-21T00:35:28.072Z,49.45
2022-11-21T00:37:54.940Z,50.75
2022-11-21T00:40:21.599Z,50.00
2022-11-21T00:42:48.227Z,53.92
2022-11-21T00:45:17.314Z,58.38
2022-11-21T00:47:46.410Z,47.50
2022-11-21T00:50:13.276Z,55.40
2022-11-21T00:52:39.926Z,50.00
2022-11-21T00:55:07.104Z,62.67
2022-11-21T00:57:33.782Z,53.08
2022-11-21T01:00:00.415Z,49.13
2022-11-21T01:02:27.050Z,52.50
2022-11-21T01:04:53.695Z,51.50
2022-11-21T01:07:20.473Z,52.88
2022-11-21T01:09:47.220Z,65.97
2022-11-21T01:12:13.908Z,59.13
2022-11-21T01:14:40.562Z,55.10
2022-11-21T01:17:07.228Z,53.50
2022-11-21T01:19:34.022Z,79.38
2022-11-21T01:22:00.708Z,72.88
2022-11-21T01:24:27.594Z,76.65
2022-11-21T01:26:54.837Z,65.35
2022-11-21T01:29:21.839Z,57.78
2022-11-21T01:31:48.583Z,80.15
2022-11-21T01:34:15.396Z,72.32
2022-11-21T01:36:42.237Z,57.67
2022-11-21T01:39:10.873Z,71.82
2022-11-21T01:41:42.406Z,68.07
2022-11-21T01:44:21.035Z,68.60
2022-11-21T01:46:48.466Z,64.60
2022-11-21T01:49:21.129Z,80.35
2022-11-21T01:51:58.742Z,70.82
2022-11-21T01:54:34.491Z,81.07
2022-11-21T01:57:10.853Z,62.47
2022-11-21T01:59:41.601Z,55.65
2022-11-21T02:02:10.584Z,81.57
2022-11-21T02:04:39.606Z,66.78
2022-11-21T02:07:07.063Z,62.80
2022-11-21T02:09:35.600Z,74.10
2022-11-21T02:12:07.011Z,62.00
2022-11-21T02:14:35.357Z,73.90
2022-11-21T02:17:05.582Z,78.50
2022-11-21T02:19:54.044Z,62.22
2022-11-21T02:22:28.216Z,83.00
2022-11-21T02:25:02.104Z,54.60
2022-11-21T02:27:28.848Z,67.63
2022-11-21T02:29:55.677Z,68.68
2022-11-21T02:32:24.321Z,62.78
2022-11-21T02:34:51.338Z,69.07
2022-11-21T02:37:18.665Z,66.95
2022-11-21T02:39:46.278Z,58.63
2022-11-21T02:42:17.896Z,63.95
2022-11-21T02:45:13.865Z,92.70
2022-11-21T02:47:40.675Z,62.85
2022-11-21T02:50:12.676Z,69.25
2022-11-21T02:52:39.337Z,64.53
2022-11-21T02:55:06.371Z,67.13
2022-11-21T02:57:33.074Z,84.30
2022-11-21T02:59:59.830Z,54.67
2022-11-21T03:02:26.549Z,66.32
2022-11-21T03:04:53.203Z,56.75
2022-11-21T03:07:19.897Z,69.55
2022-11-21T03:09:46.589Z,62.15
2022-11-21T03:12:13.279Z,58.15
2022-11-21T03:14:39.986Z,55.53
2022-11-21T03:17:06.839Z,62.33
2022-11-21T03:19:33.554Z,65.75
2022-11-21T03:22:00.223Z,57.97
2022-11-21T03:24:26.992Z,54.10
2022-11-21T03:26:53.738Z,63.47
2022-11-21T03:29:20.391Z,61.00
2022-11-21T03:31:47.086Z,63.67
2022-11-21T03:34:13.784Z,55.88
2022-11-21T03:36:40.399Z,41.97
2022-11-21T03:39:07.164Z,52.83
2022-11-21T03:41:33.807Z,62.88
2022-11-21T03:44:02.697Z,54.50
2022-11-21T03:46:30.684Z,58.13
2022-11-21T03:48:57.471Z,49.05
2022-11-21T03:51:24.565Z,49.22
2022-11-21T03:53:51.408Z,50.42
2022-11-21T03:56:18.412Z,58.70
2022-11-21T03:58:45.243Z,48.15
2022-11-21T04:01:13.698Z,52.33
2022-11-21T04:03:41.514Z,51.22
2022-11-21T04:06:09.002Z,59.38
2022-11-21T04:08:35.998Z,62.03
2022-11-21T04:11:02.801Z,50.47
2022-11-21T04:13:29.675Z,47.47
2022-11-21T04:15:56.388Z,55.50
2022-11-21T04:18:23.030Z,51.97
2022-11-21T04:20:49.810Z,50.20
2022-11-21T04:23:16.532Z,53.92
2022-11-21T04:25:43.159Z,57.05
2022-11-21T04:28:13.532Z,58.90
2022-11-21T04:30:40.125Z,50.88
2022-11-21T04:33:07.262Z,46.45
2022-11-21T04:35:33.954Z,57.67
2022-11-21T04:38:00.576Z,51.03
2022-11-21T04:40:27.245Z,53.78
2022-11-21T04:42:54.005Z,59.95
2022-11-21T04:45:20.682Z,52.95
2022-11-21T04:47:47.569Z,49.50
2022-11-21T04:50:15.685Z,58.15
2022-11-21T04:52:42.737Z,57.65
2022-11-21T04:55:09.695Z,55.97
2022-11-21T04:57:36.379Z,55.97
2022-11-21T05:00:03.732Z,50.08
2022-11-21T05:02:30.465Z,60.75
2022-11-21T05:04:57.121Z,48.63
2022-11-21T05:07:23.963Z,53.58
2022-11-21T05:09:50.800Z,54.90
2022-11-21T05:12:36.007Z,60.40
2022-11-21T05:15:02.703Z,57.13
2022-11-21T05:17:29.905Z,54.65
2022-11-21T05:19:56.704Z,54.03
2022-11-21T05:22:23.489Z,66.82
2022-11-21T05:24:50.111Z,56.70
2022-11-21T05:27:16.704Z,64.35
2022-11-21T05:29:43.363Z,69.93
2022-11-21T05:32:10.115Z,74.50
2022-11-21T05:34:36.896Z,72.03
2022-11-21T05:37:03.822Z,70.18
2022-11-21T05:39:30.626Z,66.75
2022-11-21T05:42:02.743Z,81.30
2022-11-21T05:44:30.405Z,76.75
2022-11-21T05:46:57.434Z,64.32
2022-11-21T05:49:24.081Z,75.28
2022-11-21T05:51:50.748Z,60.63
2022-11-21T05:54:17.460Z,57.72
2022-11-21T05:56:44.312Z,52.40
2022-11-21T05:59:11.432Z,57.60
2022-11-21T06:01:57.115Z,54.75
2022-11-21T06:04:23.965Z,55.40
2022-11-21T06:06:50.670Z,56.40
2022-11-21T06:09:17.335Z,61.63
2022-11-21T06:11:44.025Z,68.30
2022-11-21T06:14:10.757Z,65.38
2022-11-21T06:16:37.439Z,65.18
2022-11-21T06:19:04.220Z,62.28
2022-11-21T06:21:31.006Z,57.53
2022-11-21T06:23:59.210Z,59.78
2022-11-21T06:26:44.557Z,52.97
2022-11-21T06:29:12.188Z,53.75
2022-11-21T06:31:39.081Z,64.60
2022-11-21T06:34:05.744Z,62.78
2022-11-21T06:36:32.423Z,52.78
2022-11-21T06:38:59.137Z,56.47
2022-11-21T06:41:31.002Z,55.28
2022-11-21T06:44:03.612Z,48.15
2022-11-21T06:46:30.284Z,47.28
2022-11-21T06:48:56.911Z,56.60
2022-11-21T06:51:24.874Z,54.05
2022-11-21T06:53:57.093Z,54.75
2022-11-21T06:56:25.963Z,67.70
2022-11-21T06:58:53.369Z,55.92
2022-11-21T07:01:20.276Z,54.28
2022-11-21T07:03:47.102Z,68.82
2022-11-21T07:06:13.868Z,72.40
2022-11-21T07:08:41.239Z,71.10
2022-11-21T07:11:28.522Z,76.57
2022-11-21T07:13:55.425Z,69.00
2022-11-21T07:16:22.257Z,64.20
2022-11-21T07:18:48.915Z,65.15
2022-11-21T07:21:15.570Z,58.40
2022-11-21T07:23:42.290Z,64.63
2022-11-21T07:26:10.398Z,62.03
2022-11-21T07:28:37.170Z,58.05
2022-11-21T07:31:08.485Z,54.83
2022-11-21T07:33:37.600Z,55.40
2022-11-21T07:36:04.508Z,53.75
2022-11-21T07:38:31.171Z,58.53
2022-11-21T07:40:57.902Z,47.20
2022-11-21T07:43:24.654Z,55.42
2022-11-21T07:45:51.378Z,56.20
2022-11-21T07:48:18.107Z,53.38
2022-11-21T07:50:44.901Z,46.97
2022-11-21T07:53:11.920Z,49.75
2022-11-21T07:55:40.866Z,50.30
2022-11-21T07:58:13.000Z,48.22
2022-11-21T08:00:42.871Z,49.30
2022-11-21T08:03:12.307Z,57.10
2022-11-21T08:05:41.403Z,59.42
2022-11-21T08:08:08.138Z,61.25
2022-11-21T08:10:38.527Z,51.00
2022-11-21T08:13:05.810Z,50.67
2022-11-21T08:15:32.458Z,44.15
2022-11-21T08:17:59.226Z,46.25
2022-11-21T08:20:26.186Z,50.95
2022-11-21T08:22:52.935Z,48.15
2022-11-21T08:25:19.714Z,54.03
2022-11-21T08:27:46.450Z,44.80
2022-11-21T08:30:13.840Z,47.53
2022-11-21T08:32:41.029Z,48.80
2022-11-21T08:35:08.493Z,51.13
2022-11-21T08:37:35.144Z,54.83
2022-11-21T08:40:02.517Z,60.40
2022-11-21T08:42:29.096Z,47.10
2022-11-21T08:44:55.856Z,53.50
2022-11-21T08:47:22.624Z,52.55
2022-11-21T08:49:49.360Z,67.97
2022-11-21T08:52:19.048Z,62.13
2022-11-21T08:54:45.882Z,62.35
2022-11-21T08:57:12.906Z,61.33
2022-11-21T08:59:39.639Z,49.72
2022-11-21T09:02:06.947Z,51.47
2022-11-21T09:04:33.738Z,51.33
2022-11-21T09:07:02.071Z,50.47
2022-11-21T09:09:28.915Z,53.25
2022-11-21T09:11:55.704Z,48.47
2022-11-21T09:14:41.291Z,41.72
2022-11-21T09:17:31.487Z,50.70
2022-11-21T09:19:58.289Z,47.80
2022-11-21T09:22:28.269Z,42.90
2022-11-21T09:24:55.034Z,47.63
2022-11-21T09:27:21.911Z,52.50
2022-11-21T09:29:53.812Z,49.65
2022-11-21T09:32:21.087Z,47.33
2022-11-21T09:34:47.815Z,45.13
2022-11-21T09:37:14.797Z,44.25
2022-11-21T09:39:41.564Z,42.97
2022-11-21T09:42:38.764Z,36.17
2022-11-21T09:45:27.628Z,44.70
2022-11-21T09:48:01.661Z,38.03
2022-11-21T09:51:03.413Z,42.00
2022-11-21T09:53:56.116Z,43.85
2022-11-21T09:56:23.907Z,49.42
2022-11-21T09:58:56.611Z,38.10
2022-11-21T10:01:23.447Z,49.00
2022-11-21T10:03:52.422Z,41.92
2022-11-21T10:06:31.857Z,40.70
2022-11-21T10:09:09.471Z,44.13
2022-11-21T10:12:00.446Z,35.75
2022-11-21T10:14:52.082Z,40.83
2022-11-21T10:17:38.991Z,34.60
2022-11-21T10:20:11.432Z,34.05
2022-11-21T10:22:45.120Z,34.88
2022-11-21T10:25:37.408Z,32.40
2022-11-21T10:28:32.214Z,39.40
2022-11-21T10:30:59.427Z,39.78
2022-11-21T10:33:34.350Z,44.40
2022-11-21T10:36:24.060Z,43.58
2022-11-21T10:38:52.191Z,49.15
2022-11-21T10:41:50.695Z,45.35
2022-11-21T10:44:45.541Z,44.45
2022-11-21T10:47:33.533Z,55.80
2022-11-21T10:50:09.343Z,52.92
2022-11-21T10:52:44.412Z,47.80
2022-11-21T10:55:13.382Z,54.40
2022-11-21T10:57:47.967Z,42.13
2022-11-21T11:00:15.045Z,28.50
2022-11-21T11:02:43.546Z,33.28
2022-11-21T11:05:20.637Z,33.03
2022-11-21T11:08:02.365Z,26.42
2022-11-21T11:10:29.956Z,28.65
2022-11-21T11:16:22.842Z,32.60
2022-11-21T11:19:00.434Z,26.83
2022-11-21T11:21:28.692Z,24.77
2022-11-21T11:24:06.948Z,26.15
2022-11-21T11:26:33.782Z,25.15
2022-11-21T11:29:15.787Z,16.35
2022-11-21T11:31:56.823Z,20.88
2022-11-21T11:34:26.336Z,17.05
2022-11-21T11:37:04.172Z,17.23
2022-11-21T11:39:37.637Z,19.10
2022-11-21T11:42:22.591Z,19.92
2022-11-21T11:45:34.915Z,12.82
2022-11-21T11:48:10.684Z,17.52
2022-11-21T11:50:48.662Z,19.15
2022-11-21T11:53:41.395Z,17.48
2022-11-21T11:56:38.499Z,16.50
2022-11-21T11:59:26.131Z,19.83
2022-11-21T12:02:18.908Z,17.55
2022-11-21T12:05:05.604Z,10.38
2022-11-21T12:10:25.108Z,12.57
2022-11-21T12:13:13.194Z,13.85
2022-11-21T12:15:51.109Z,15.25
2022-11-21T12:18:20.977Z,12.80
2022-11-21T12:21:02.902Z,15.90
2022-11-21T12:23:35.721Z,14.48
2022-11-21T12:26:20.452Z,14.65
2022-11-21T12:29:11.548Z,14.15
2022-11-21T12:31:40.833Z,15.25
2022-11-21T12:34:33.990Z,13.90
2022-11-21T12:37:07.842Z,15.68
2022-11-21T12:39:44.395Z,10.77
2022-11-21T12:42:49.490Z,16.52
2022-11-21T12:45:21.927Z,11.90
2022-11-21T12:48:38.516Z,17.02
2022-11-21T12:51:42.738Z,16.65
2022-11-21T12:54:38.809Z,11.60
2022-11-21T12:57:13.267Z,8.85
2022-11-21T13:00:01.874Z,10.38
2022-11-21T16:48:47.119Z,9.13
2022-11-21T16:51:22.429Z,10.23
2022-11-21T16:56:16.734Z,10.75
2022-11-21T16:58:43.533Z,7.63
2022-11-21T17:01:14.513Z,8.50
2022-11-21T17:03:43.065Z,7.60
2022-11-21T17:06:10.787Z,9.85
2022-11-21T17:08:37.970Z,6.60
2022-11-21T17:11:22.714Z,7.90
2022-11-21T17:13:51.054Z,9.52
2022-11-21T17:16:19.916Z,5.07
2022-11-21T17:18:47.131Z,7.78
2022-11-21T17:21:15.818Z,10.98
2022-11-21T17:23:44.419Z,8.13
2022-11-21T17:26:13.464Z,9.93
2022-11-21T17:28:45.288Z,10.13
2022-11-21T17:31:15.082Z,6.65
2022-11-21T17:33:42.317Z,11.65
2022-11-21T17:36:13.292Z,9.27
2022-11-21T17:38:40.325Z,8.18
2022-11-21T17:41:09.826Z,17.95
2022-11-21T17:43:36.556Z,6.78
2022-11-21T17:46:21.064Z,12.30
2022-11-21T17:48:55.052Z,10.15
2022-11-21T17:51:26.094Z,12.05
2022-11-21T17:53:53.107Z,9.48
2022-11-21T17:56:24.920Z,10.50
2022-11-21T17:58:52.264Z,11.70
2022-11-21T18:01:19.976Z,12.65
2022-11-21T18:03:48.524Z,10.48
2022-11-21T18:06:16.662Z,10.52
2022-11-21T18:08:45.687Z,9.15
2022-11-21T18:11:14.878Z,7.28
2022-11-21T18:13:42.056Z,11.60
2022-11-21T18:16:11.605Z,7.05
2022-11-21T18:18:38.723Z,11.77
2022-11-21T18:21:14.479Z,11.43
2022-11-21T18:23:41.783Z,7.47
2022-11-21T18:26:12.141Z,11.18
2022-11-21T18:28:39.092Z,9.70
2022-11-21T18:31:10.798Z,14.45
2022-11-21T18:33:38.278Z,9.02
2022-11-21T18:36:06.774Z,11.38
2022-11-21T18:38:54.976Z,13.02
2022-11-21T18:41:23.977Z,9.77
2022-11-21T18:43:58.979Z,12.95
2022-11-21T18:46:27.651Z,9.85
2022-11-21T18:49:05.173Z,12.50
2022-11-21T18:51:33.102Z,9.40
2022-11-21T18:54:07.102Z,10.90
2022-11-21T18:56:34.732Z,11.63
2022-11-21T18:59:03.543Z,10.93
2022-11-21T19:01:31.947Z,8.02
2022-11-21T19:03:59.163Z,8.70
2022-11-21T19:06:27.165Z,9.45
2022-11-21T19:08:55.789Z,9.15
2022-11-21T19:11:24.696Z,8.30
2022-11-21T19:13:52.217Z,8.05
2022-11-21T19:16:20.714Z,10.30
2022-11-21T19:19:05.479Z,12.80
2022-11-21T19:21:39.226Z,18.67
2022-11-21T19:24:16.216Z,19.88
2022-11-21T19:26:43.422Z,14.85
2022-11-21T19:29:10.637Z,17.98
2022-11-21T19:31:44.767Z,17.75
2022-11-21T19:34:13.231Z,23.60
2022-11-21T19:36:40.129Z,22.65
2022-11-21T19:39:07.133Z,15.57
2022-11-21T19:41:33.827Z,34.15
2022-11-21T19:44:01.523Z,39.30
2022-11-21T19:46:33.216Z,18.55
2022-11-21T19:49:00.721Z,36.42
2022-11-21T19:51:35.716Z,21.58
2022-11-21T19:54:03.738Z,38.95
2022-11-21T19:56:30.601Z,21.55
2022-11-21T19:58:57.847Z,16.92
2022-11-21T20:01:29.543Z,33.80
2022-11-21T20:03:58.481Z,23.45
2022-11-21T20:06:26.595Z,32.92
2022-11-21T20:08:58.378Z,20.98
2022-11-21T20:11:26.342Z,31.67
2022-11-21T20:13:53.157Z,38.15
2022-11-21T20:16:41.640Z,30.33
2022-11-21T20:19:10.796Z,28.08
2022-11-21T20:21:38.820Z,12.77
2022-11-21T20:24:06.537Z,13.13
2022-11-21T20:26:33.913Z,12.35
2022-11-21T20:29:00.836Z,12.23
2022-11-21T20:31:29.807Z,16.90
2022-11-21T20:34:00.783Z,14.93
2022-11-21T20:36:32.920Z,15.23
2022-11-21T20:39:05.343Z,21.98
2022-11-21T20:41:36.377Z,24.13
2022-11-21T20:46:54.927Z,17.63
2022-11-21T20:49:21.716Z,17.95
2022-11-21T20:54:36.337Z,7.13
2022-11-21T20:57:03.053Z,11.27
2022-11-21T20:59:30.026Z,19.02
2022-11-21T21:01:57.099Z,24.55
2022-11-21T21:04:23.894Z,18.00
2022-11-21T21:06:50.641Z,28.20
2022-11-21T21:09:17.407Z,24.25
2022-11-21T21:11:52.934Z,17.40
2022-11-21T21:14:21.493Z,31.17
2022-11-21T21:16:48.357Z,28.30
2022-11-21T21:19:15.054Z,33.03
2022-11-21T21:21:41.847Z,33.88
2022-11-21T21:24:11.016Z,18.98
2022-11-21T21:26:43.848Z,44.47
2022-11-21T21:29:17.160Z,25.13
2022-11-21T21:31:50.422Z,22.05
2022-11-21T21:34:17.931Z,14.05
2022-11-21T21:36:44.851Z,13.75
2022-11-21T21:39:11.559Z,11.25
2022-11-21T21:41:44.685Z,16.27
2022-11-21T21:44:11.705Z,34.03
2022-11-21T21:46:38.420Z,19.92
2022-11-21T21:49:05.018Z,34.40
2022-11-21T21:51:32.231Z,43.15
2022-11-21T21:53:59.552Z,32.85
2022-11-21T21:56:27.839Z,27.60
2022-11-21T21:58:56.669Z,19.85
2022-11-21T22:01:31.171Z,19.70
2022-11-21T22:03:59.918Z,16.58
2022-11-21T22:06:26.842Z,7.28
2022-11-21T22:08:54.470Z,6.18
2022-11-21T22:11:22.999Z,6.75
2022-11-21T22:13:55.256Z,9.55
2022-11-21T22:16:21.931Z,14.70
2022-11-21T22:18:48.726Z,5.90
2022-11-21T22:21:21.115Z,6.20
2022-11-21T22:24:24.912Z,5.65
2022-11-21T22:26:34.768Z,9.18
2022-11-21T22:29:01.555Z,16.42
2022-11-21T22:31:30.419Z,13.48
2022-11-21T22:33:57.682Z,17.23
2022-11-21T22:36:24.384Z,13.45
2022-11-21T22:38:55.492Z,7.60
2022-11-21T22:41:24.607Z,9.65
2022-11-21T22:43:53.338Z,7.50
2022-11-21T22:46:20.691Z,8.75
2022-11-21T22:48:48.054Z,9.77
2022-11-21T22:51:17.081Z,20.85
2022-11-21T22:53:45.973Z,10.90
2022-11-21T22:56:12.947Z,13.18
2022-11-21T22:58:40.620Z,8.38
2022-11-21T23:01:17.656Z,8.48
2022-11-21T23:03:44.774Z,10.38
2022-11-21T23:06:19.127Z,14.82
2022-11-21T23:08:46.164Z,8.98
2022-11-21T23:11:15.368Z,8.65
2022-11-21T23:13:44.135Z,6.43
2022-11-21T23:16:12.124Z,10.20
2022-11-21T23:18:39.086Z,7.68
2022-11-21T23:21:05.973Z,8.02
2022-11-21T23:23:32.858Z,8.70
2022-11-21T23:25:59.776Z,11.05
2022-11-21T23:28:26.512Z,11.95
2022-11-21T23:30:53.173Z,11.10
2022-11-21T23:33:19.980Z,6.55
2022-11-21T23:35:47.236Z,9.45
2022-11-21T23:38:15.131Z,8.43
2022-11-21T23:40:42.243Z,13.15
2022-11-21T23:43:08.882Z,8.30
2022-11-21T23:45:35.613Z,13.38
2022-11-21T23:48:02.371Z,11.82
2022-11-21T23:50:29.224Z,15.52
2022-11-21T23:52:55.825Z,13.57
2022-11-21T23:55:23.227Z,6.35
2022-11-21T23:57:51.198Z,11.18
